Terminal Aerodrome Forecast
Issued by NWS

Current Version | Previous Version | Text Only | Print | Product List | Glossary Off
Versions: 1 2 3 4 5 6 7 8 9 10 11 12 13 14 15 16 17 18 19

533
FTUS41 KILN 140900 AAA
TAFLUK
TAF AMD
KLUK 140900Z 1409/1506 00000KT P6SM BKN035
     FM141000 00000KT P6SM FEW025
     FM141600 12005KT P6SM FEW025 BKN200=

USA.gov is the U.S. government's official web portal to all federal, state and local government web resources and services.